sensor_id;sensor_type;location;lat;lon;timestamp;pressure;altitude;pressure_sealevel;temperature;humidity
55456;BME280;63021;52.836;6.376;2024-01-30T00:01:12;102723.84;;;5.82;74.33
55456;BME280;63021;52.836;6.376;2024-01-30T00:03:37;102721.19;;;5.82;74.05
55456;BME280;63021;52.836;6.376;2024-01-30T00:06:03;102698.13;;;5.66;74.40
55456;BME280;63021;52.836;6.376;2024-01-30T00:08:29;102718.84;;;5.76;74.57
55456;BME280;63021;52.836;6.376;2024-01-30T00:10:54;102682.34;;;5.65;74.57
55456;BME280;63021;52.836;6.376;2024-01-30T00:13:19;102684.78;;;5.69;74.98
55456;BME280;63021;52.836;6.376;2024-01-30T00:15:45;102675.84;;;5.72;75.04
55456;BME280;63021;52.836;6.376;2024-01-30T00:18:10;102698.06;;;5.87;74.81
55456;BME280;63021;52.836;6.376;2024-01-30T00:20:36;102689.38;;;5.85;75.50
55456;BME280;63021;52.836;6.376;2024-01-30T00:23:01;102686.66;;;5.86;75.59
55456;BME280;63021;52.836;6.376;2024-01-30T00:25:27;102696.09;;;5.92;75.40
55456;BME280;63021;52.836;6.376;2024-01-30T00:27:52;102664.47;;;5.70;75.47
55456;BME280;63021;52.836;6.376;2024-01-30T00:30:18;102685.66;;;5.89;75.52
55456;BME280;63021;52.836;6.376;2024-01-30T00:32:43;102695.22;;;5.92;75.47
55456;BME280;63021;52.836;6.376;2024-01-30T00:35:09;102668.34;;;5.82;75.58
55456;BME280;63021;52.836;6.376;2024-01-30T00:37:35;102665.84;;;5.79;76.12
55456;BME280;63021;52.836;6.376;2024-01-30T00:40:01;102693.38;;;5.94;75.85
55456;BME280;63021;52.836;6.376;2024-01-30T00:42:26;102671.84;;;5.82;75.74
55456;BME280;63021;52.836;6.376;2024-01-30T00:44:51;102657.00;;;5.80;75.38
55456;BME280;63021;52.836;6.376;2024-01-30T00:47:17;102682.34;;;5.84;75.75
55456;BME280;63021;52.836;6.376;2024-01-30T00:49:42;102692.63;;;5.90;75.68
55456;BME280;63021;52.836;6.376;2024-01-30T00:52:08;102688.31;;;5.89;75.77
55456;BME280;63021;52.836;6.376;2024-01-30T00:54:33;102658.13;;;5.74;75.86
55456;BME280;63021;52.836;6.376;2024-01-30T00:56:59;102664.34;;;5.73;75.89
55456;BME280;63021;52.836;6.376;2024-01-30T00:59:24;102668.47;;;5.79;75.99
55456;BME280;63021;52.836;6.376;2024-01-30T01:01:50;102677.22;;;5.81;76.09
55456;BME280;63021;52.836;6.376;2024-01-30T01:04:16;102670.50;;;5.73;76.09
55456;BME280;63021;52.836;6.376;2024-01-30T01:06:42;102674.97;;;5.71;76.09
55456;BME280;63021;52.836;6.376;2024-01-30T01:09:11;102676.47;;;5.77;76.25
55456;BME280;63021;52.836;6.376;2024-01-30T01:11:36;102675.78;;;5.73;76.37
55456;BME280;63021;52.836;6.376;2024-01-30T01:14:03;102688.63;;;5.81;76.41
55456;BME280;63021;52.836;6.376;2024-01-30T01:16:28;102687.94;;;5.78;76.60
55456;BME280;63021;52.836;6.376;2024-01-30T01:18:55;102678.13;;;5.80;76.51
55456;BME280;63021;52.836;6.376;2024-01-30T01:21:20;102668.63;;;5.76;76.10
55456;BME280;63021;52.836;6.376;2024-01-30T01:23:46;102668.13;;;5.67;76.37
55456;BME280;63021;52.836;6.376;2024-01-30T01:26:11;102669.63;;;5.73;76.60
55456;BME280;63021;52.836;6.376;2024-01-30T01:28:36;102676.41;;;5.79;76.67
55456;BME280;63021;52.836;6.376;2024-01-30T01:31:02;102688.78;;;5.78;76.85
55456;BME280;63021;52.836;6.376;2024-01-30T01:33:33;102693.69;;;5.86;76.88
55456;BME280;63021;52.836;6.376;2024-01-30T01:36:00;102668.16;;;5.86;76.95
55456;BME280;63021;52.836;6.376;2024-01-30T01:38:27;102662.13;;;5.83;77.09
55456;BME280;63021;52.836;6.376;2024-01-30T01:40:53;102653.50;;;5.79;77.00
55456;BME280;63021;52.836;6.376;2024-01-30T01:43:18;102648.91;;;5.83;77.20
55456;BME280;63021;52.836;6.376;2024-01-30T01:45:45;102648.16;;;5.81;77.17
55456;BME280;63021;52.836;6.376;2024-01-30T01:48:11;102642.06;;;5.79;77.42
55456;BME280;63021;52.836;6.376;2024-01-30T01:50:38;102647.34;;;5.79;77.38
55456;BME280;63021;52.836;6.376;2024-01-30T01:53:05;102624.50;;;5.78;77.57
55456;BME280;63021;52.836;6.376;2024-01-30T01:55:32;102654.63;;;5.93;77.80
55456;BME280;63021;52.836;6.376;2024-01-30T01:57:58;102647.84;;;5.87;77.80
55456;BME280;63021;52.836;6.376;2024-01-30T02:00:23;102649.50;;;5.89;77.72
55456;BME280;63021;52.836;6.376;2024-01-30T02:02:49;102651.81;;;5.97;77.79
55456;BME280;63021;52.836;6.376;2024-01-30T02:05:15;102630.25;;;5.86;77.99
55456;BME280;63021;52.836;6.376;2024-01-30T02:07:42;102644.91;;;5.93;77.85
55456;BME280;63021;52.836;6.376;2024-01-30T02:10:08;102629.03;;;5.93;78.04
55456;BME280;63021;52.836;6.376;2024-01-30T02:12:34;102629.03;;;5.93;77.76
55456;BME280;63021;52.836;6.376;2024-01-30T02:15:00;102636.75;;;5.99;77.80
55456;BME280;63021;52.836;6.376;2024-01-30T02:17:25;102640.50;;;5.94;78.26
55456;BME280;63021;52.836;6.376;2024-01-30T02:19:51;102637.38;;;6.04;78.07
55456;BME280;63021;52.836;6.376;2024-01-30T02:22:17;102650.81;;;6.00;78.24
55456;BME280;63021;52.836;6.376;2024-01-30T02:24:44;102610.63;;;5.92;77.83
55456;BME280;63021;52.836;6.376;2024-01-30T02:27:09;102648.81;;;6.05;78.15
55456;BME280;63021;52.836;6.376;2024-01-30T02:29:35;102650.59;;;6.04;77.75
55456;BME280;63021;52.836;6.376;2024-01-30T02:32:01;102623.75;;;5.93;77.71
55456;BME280;63021;52.836;6.376;2024-01-30T02:34:26;102624.38;;;6.00;78.36
55456;BME280;63021;52.836;6.376;2024-01-30T02:36:51;102608.78;;;5.94;78.24
55456;BME280;63021;52.836;6.376;2024-01-30T02:39:17;102610.41;;;5.96;78.34
55456;BME280;63021;52.836;6.376;2024-01-30T02:41:42;102627.66;;;6.05;78.14
55456;BME280;63021;52.836;6.376;2024-01-30T02:44:07;102622.66;;;5.99;77.93
55456;BME280;63021;52.836;6.376;2024-01-30T02:46:33;102612.06;;;5.99;78.28
55456;BME280;63021;52.836;6.376;2024-01-30T02:48:58;102633.22;;;5.99;77.81
55456;BME280;63021;52.836;6.376;2024-01-30T02:51:23;102614.00;;;5.95;78.36
55456;BME280;63021;52.836;6.376;2024-01-30T02:53:49;102616.38;;;6.01;78.29
55456;BME280;63021;52.836;6.376;2024-01-30T02:56:14;102619.19;;;5.97;78.07
55456;BME280;63021;52.836;6.376;2024-01-30T02:58:40;102604.34;;;5.94;77.91
55456;BME280;63021;52.836;6.376;2024-01-30T03:01:06;102606.34;;;5.89;77.66
55456;BME280;63021;52.836;6.376;2024-01-30T03:03:32;102619.28;;;5.95;78.06
55456;BME280;63021;52.836;6.376;2024-01-30T03:05:57;102609.28;;;5.83;77.62
55456;BME280;63021;52.836;6.376;2024-01-30T03:08:22;102587.22;;;5.84;77.79
55456;BME280;63021;52.836;6.376;2024-01-30T03:10:48;102582.06;;;5.81;77.61
55456;BME280;63021;52.836;6.376;2024-01-30T03:13:14;102615.47;;;5.82;77.65
55456;BME280;63021;52.836;6.376;2024-01-30T03:15:39;102576.94;;;5.78;78.13
55456;BME280;63021;52.836;6.376;2024-01-30T03:18:04;102573.56;;;5.74;77.61
55456;BME280;63021;52.836;6.376;2024-01-30T03:20:30;102588.13;;;5.83;77.23
55456;BME280;63021;52.836;6.376;2024-01-30T03:22:56;102588.06;;;5.84;77.42
55456;BME280;63021;52.836;6.376;2024-01-30T03:25:22;102592.50;;;5.84;77.51
55456;BME280;63021;52.836;6.376;2024-01-30T03:27:47;102581.78;;;5.68;77.93
55456;BME280;63021;52.836;6.376;2024-01-30T03:30:13;102561.50;;;5.68;77.54
55456;BME280;63021;52.836;6.376;2024-01-30T03:32:38;102579.44;;;5.81;77.51
55456;BME280;63021;52.836;6.376;2024-01-30T03:35:04;102551.50;;;5.75;77.91
55456;BME280;63021;52.836;6.376;2024-01-30T03:37:29;102550.78;;;5.71;77.48
55456;BME280;63021;52.836;6.376;2024-01-30T03:39:55;102552.56;;;5.71;77.98
55456;BME280;63021;52.836;6.376;2024-01-30T03:42:20;102560.34;;;5.74;77.95
55456;BME280;63021;52.836;6.376;2024-01-30T03:44:47;102548.63;;;5.80;78.40
55456;BME280;63021;52.836;6.376;2024-01-30T03:47:13;102539.13;;;5.76;78.30
55456;BME280;63021;52.836;6.376;2024-01-30T03:49:38;102552.47;;;5.92;78.69
55456;BME280;63021;52.836;6.376;2024-01-30T03:52:03;102545.75;;;5.84;78.62
55456;BME280;63021;52.836;6.376;2024-01-30T03:54:29;102559.47;;;5.93;78.75
55456;BME280;63021;52.836;6.376;2024-01-30T03:56:54;102538.41;;;5.91;78.75
55456;BME280;63021;52.836;6.376;2024-01-30T03:59:19;102537.31;;;5.95;78.69
55456;BME280;63021;52.836;6.376;2024-01-30T04:01:51;102543.41;;;5.97;78.58
55456;BME280;63021;52.836;6.376;2024-01-30T04:04:18;102535.97;;;6.05;78.65
55456;BME280;63021;52.836;6.376;2024-01-30T04:06:44;102543.59;;;6.12;78.47
55456;BME280;63021;52.836;6.376;2024-01-30T04:09:09;102536.66;;;6.09;78.75
55456;BME280;63021;52.836;6.376;2024-01-30T04:11:35;102535.56;;;6.13;79.25
55456;BME280;63021;52.836;6.376;2024-01-30T04:14:00;102506.72;;;6.09;79.37
55456;BME280;63021;52.836;6.376;2024-01-30T04:16:26;102479.53;;;6.06;79.02
55456;BME280;63021;52.836;6.376;2024-01-30T04:18:52;102489.53;;;6.17;79.15
55456;BME280;63021;52.836;6.376;2024-01-30T04:21:17;102523.63;;;6.23;79.08
55456;BME280;63021;52.836;6.376;2024-01-30T04:23:43;102542.00;;;6.27;79.76
55456;BME280;63021;52.836;6.376;2024-01-30T04:26:08;102513.50;;;6.32;79.37
55456;BME280;63021;52.836;6.376;2024-01-30T04:28:33;102525.41;;;6.40;79.25
55456;BME280;63021;52.836;6.376;2024-01-30T04:30:59;102527.88;;;6.44;79.60
55456;BME280;63021;52.836;6.376;2024-01-30T04:33:24;102532.31;;;6.43;79.84
55456;BME280;63021;52.836;6.376;2024-01-30T04:35:50;102542.91;;;6.43;79.71
55456;BME280;63021;52.836;6.376;2024-01-30T04:38:15;102531.16;;;6.49;79.66
55456;BME280;63021;52.836;6.376;2024-01-30T04:40:41;102533.81;;;6.49;79.41
55456;BME280;63021;52.836;6.376;2024-01-30T04:43:06;102543.84;;;6.59;79.94
55456;BME280;63021;52.836;6.376;2024-01-30T04:45:31;102544.06;;;6.55;79.23
55456;BME280;63021;52.836;6.376;2024-01-30T04:47:57;102501.28;;;6.47;79.22
55456;BME280;63021;52.836;6.376;2024-01-30T04:50:23;102509.81;;;6.52;79.47
55456;BME280;63021;52.836;6.376;2024-01-30T04:52:48;102483.78;;;6.44;79.74
55456;BME280;63021;52.836;6.376;2024-01-30T04:55:14;102498.78;;;6.61;79.49
55456;BME280;63021;52.836;6.376;2024-01-30T04:57:39;102507.25;;;6.68;78.97
55456;BME280;63021;52.836;6.376;2024-01-30T05:00:05;102508.19;;;6.67;79.36
55456;BME280;63021;52.836;6.376;2024-01-30T05:02:31;102489.75;;;6.65;79.02
55456;BME280;63021;52.836;6.376;2024-01-30T05:04:56;102531.69;;;6.73;79.06
55456;BME280;63021;52.836;6.376;2024-01-30T05:07:24;102498.38;;;6.69;78.76
55456;BME280;63021;52.836;6.376;2024-01-30T05:09:50;102505.88;;;6.76;79.24
55456;BME280;63021;52.836;6.376;2024-01-30T05:12:15;102491.72;;;6.78;79.32
55456;BME280;63021;52.836;6.376;2024-01-30T05:14:40;102506.06;;;6.73;79.01
55456;BME280;63021;52.836;6.376;2024-01-30T05:17:06;102471.66;;;6.73;78.98
55456;BME280;63021;52.836;6.376;2024-01-30T05:19:33;102499.84;;;6.74;79.10
55456;BME280;63021;52.836;6.376;2024-01-30T05:21:58;102510.47;;;6.90;78.91
55456;BME280;63021;52.836;6.376;2024-01-30T05:24:23;102504.63;;;6.84;79.25
55456;BME280;63021;52.836;6.376;2024-01-30T05:26:49;102491.09;;;6.90;79.18
55456;BME280;63021;52.836;6.376;2024-01-30T05:29:16;102484.91;;;6.89;78.95
55456;BME280;63021;52.836;6.376;2024-01-30T05:31:42;102503.91;;;6.98;79.26
55456;BME280;63021;52.836;6.376;2024-01-30T05:34:07;102487.47;;;6.91;79.08
55456;BME280;63021;52.836;6.376;2024-01-30T05:36:34;102489.72;;;6.99;79.15
55456;BME280;63021;52.836;6.376;2024-01-30T05:39:00;102478.34;;;6.97;79.38
55456;BME280;63021;52.836;6.376;2024-01-30T05:41:25;102479.47;;;6.92;79.45
55456;BME280;63021;52.836;6.376;2024-01-30T05:43:54;102478.03;;;6.87;78.97
55456;BME280;63021;52.836;6.376;2024-01-30T05:46:19;102482.88;;;6.94;79.31
55456;BME280;63021;52.836;6.376;2024-01-30T05:48:45;102512.66;;;7.16;79.10
55456;BME280;63021;52.836;6.376;2024-01-30T05:51:10;102491.78;;;7.09;78.90
55456;BME280;63021;52.836;6.376;2024-01-30T05:53:36;102506.25;;;7.20;78.94
55456;BME280;63021;52.836;6.376;2024-01-30T05:56:02;102501.19;;;7.15;79.17
55456;BME280;63021;52.836;6.376;2024-01-30T05:58:30;102492.41;;;7.15;79.20
55456;BME280;63021;52.836;6.376;2024-01-30T06:00:58;102513.94;;;7.24;78.93
55456;BME280;63021;52.836;6.376;2024-01-30T06:03:23;102532.56;;;7.23;78.82
55456;BME280;63021;52.836;6.376;2024-01-30T06:05:49;102495.03;;;7.15;78.94
55456;BME280;63021;52.836;6.376;2024-01-30T06:08:15;102479.34;;;7.11;78.45
55456;BME280;63021;52.836;6.376;2024-01-30T06:10:40;102503.19;;;7.27;78.72
55456;BME280;63021;52.836;6.376;2024-01-30T06:13:06;102520.88;;;7.27;78.85
55456;BME280;63021;52.836;6.376;2024-01-30T06:15:31;102491.56;;;7.30;78.48
55456;BME280;63021;52.836;6.376;2024-01-30T06:17:58;102474.31;;;7.23;78.60
55456;BME280;63021;52.836;6.376;2024-01-30T06:20:23;102514.13;;;7.37;78.24
55456;BME280;63021;52.836;6.376;2024-01-30T06:22:49;102481.28;;;7.24;78.42
55456;BME280;63021;52.836;6.376;2024-01-30T06:25:14;102485.25;;;7.33;78.43
55456;BME280;63021;52.836;6.376;2024-01-30T06:27:39;102490.28;;;7.37;78.00
55456;BME280;63021;52.836;6.376;2024-01-30T06:30:05;102474.28;;;7.39;78.14
55456;BME280;63021;52.836;6.376;2024-01-30T06:32:31;102457.69;;;7.35;78.24
55456;BME280;63021;52.836;6.376;2024-01-30T06:35:00;102433.47;;;7.27;78.51
55456;BME280;63021;52.836;6.376;2024-01-30T06:37:25;102445.75;;;7.28;78.38
55456;BME280;63021;52.836;6.376;2024-01-30T06:39:50;102461.97;;;7.38;78.00
55456;BME280;63021;52.836;6.376;2024-01-30T06:42:17;102454.38;;;7.32;77.99
55456;BME280;63021;52.836;6.376;2024-01-30T06:44:42;102456.16;;;7.31;78.37
55456;BME280;63021;52.836;6.376;2024-01-30T06:47:08;102468.13;;;7.38;77.94
55456;BME280;63021;52.836;6.376;2024-01-30T06:49:33;102437.47;;;7.34;78.32
55456;BME280;63021;52.836;6.376;2024-01-30T06:51:58;102457.38;;;7.41;78.15
55456;BME280;63021;52.836;6.376;2024-01-30T06:54:24;102466.25;;;7.40;78.28
55456;BME280;63021;52.836;6.376;2024-01-30T06:56:49;102454.97;;;7.37;77.80
55456;BME280;63021;52.836;6.376;2024-01-30T06:59:15;102462.69;;;7.41;77.97
55456;BME280;63021;52.836;6.376;2024-01-30T07:01:40;102454.56;;;7.44;77.89
55456;BME280;63021;52.836;6.376;2024-01-30T07:04:05;102414.75;;;7.30;78.00
55456;BME280;63021;52.836;6.376;2024-01-30T07:06:31;102487.72;;;7.52;78.04
55456;BME280;63021;52.836;6.376;2024-01-30T07:08:56;102470.03;;;7.36;78.05
55456;BME280;63021;52.836;6.376;2024-01-30T07:11:22;102498.50;;;7.49;78.07
55456;BME280;63021;52.836;6.376;2024-01-30T07:13:49;102457.03;;;7.32;77.95
55456;BME280;63021;52.836;6.376;2024-01-30T07:16:15;102464.91;;;7.33;78.17
55456;BME280;63021;52.836;6.376;2024-01-30T07:18:41;102486.59;;;7.56;78.28
55456;BME280;63021;52.836;6.376;2024-01-30T07:21:06;102464.44;;;7.41;78.15
55456;BME280;63021;52.836;6.376;2024-01-30T07:23:32;102470.44;;;7.44;78.21
55456;BME280;63021;52.836;6.376;2024-01-30T07:25:59;102477.03;;;7.53;77.91
55456;BME280;63021;52.836;6.376;2024-01-30T07:28:24;102461.38;;;7.49;78.14
55456;BME280;63021;52.836;6.376;2024-01-30T07:30:50;102464.72;;;7.52;78.02
55456;BME280;63021;52.836;6.376;2024-01-30T07:33:15;102479.91;;;7.65;77.76
55456;BME280;63021;52.836;6.376;2024-01-30T07:35:41;102470.78;;;7.54;78.43
55456;BME280;63021;52.836;6.376;2024-01-30T07:38:06;102493.25;;;7.63;78.36
55456;BME280;63021;52.836;6.376;2024-01-30T07:40:32;102494.03;;;7.65;78.44
55456;BME280;63021;52.836;6.376;2024-01-30T07:42:58;102499.41;;;7.63;78.13
55456;BME280;63021;52.836;6.376;2024-01-30T07:45:23;102506.06;;;7.71;78.02
55456;BME280;63021;52.836;6.376;2024-01-30T07:47:50;102494.53;;;7.72;78.31
55456;BME280;63021;52.836;6.376;2024-01-30T07:50:16;102484.94;;;7.69;77.74
55456;BME280;63021;52.836;6.376;2024-01-30T07:52:45;102505.56;;;7.64;78.12
55456;BME280;63021;52.836;6.376;2024-01-30T07:55:11;102472.91;;;7.63;78.05
55456;BME280;63021;52.836;6.376;2024-01-30T07:57:38;102489.13;;;7.73;78.26
55456;BME280;63021;52.836;6.376;2024-01-30T08:00:05;102500.41;;;7.77;78.00
55456;BME280;63021;52.836;6.376;2024-01-30T08:02:32;102486.75;;;7.69;78.38
55456;BME280;63021;52.836;6.376;2024-01-30T08:04:57;102504.69;;;7.79;78.09
55456;BME280;63021;52.836;6.376;2024-01-30T08:07:23;102514.34;;;7.80;78.21
55456;BME280;63021;52.836;6.376;2024-01-30T08:09:48;102511.00;;;7.77;78.04
55456;BME280;63021;52.836;6.376;2024-01-30T08:12:13;102524.78;;;7.84;77.93
55456;BME280;63021;52.836;6.376;2024-01-30T08:14:39;102526.06;;;7.92;77.96
55456;BME280;63021;52.836;6.376;2024-01-30T08:17:06;102491.25;;;7.83;78.12
55456;BME280;63021;52.836;6.376;2024-01-30T08:19:32;102494.59;;;7.86;78.13
55456;BME280;63021;52.836;6.376;2024-01-30T08:21:58;102504.56;;;7.97;78.37
55456;BME280;63021;52.836;6.376;2024-01-30T08:24:23;102508.28;;;7.94;78.05
55456;BME280;63021;52.836;6.376;2024-01-30T08:26:49;102501.16;;;7.95;78.20
55456;BME280;63021;52.836;6.376;2024-01-30T08:29:14;102497.97;;;8.04;78.18
55456;BME280;63021;52.836;6.376;2024-01-30T08:31:39;102509.97;;;7.95;78.17
55456;BME280;63021;52.836;6.376;2024-01-30T08:34:05;102501.06;;;7.96;78.03
55456;BME280;63021;52.836;6.376;2024-01-30T08:36:30;102537.31;;;8.12;78.15
55456;BME280;63021;52.836;6.376;2024-01-30T08:38:55;102503.84;;;8.09;78.00
55456;BME280;63021;52.836;6.376;2024-01-30T08:41:21;102514.47;;;8.09;77.83
55456;BME280;63021;52.836;6.376;2024-01-30T08:43:46;102514.97;;;8.16;78.20
55456;BME280;63021;52.836;6.376;2024-01-30T08:46:12;102484.22;;;7.97;77.93
55456;BME280;63021;52.836;6.376;2024-01-30T08:48:37;102543.78;;;8.22;78.21
55456;BME280;63021;52.836;6.376;2024-01-30T08:51:03;102535.47;;;8.28;78.05
55456;BME280;63021;52.836;6.376;2024-01-30T08:53:29;102519.22;;;8.19;78.01
55456;BME280;63021;52.836;6.376;2024-01-30T08:55:54;102504.28;;;8.18;77.75
55456;BME280;63021;52.836;6.376;2024-01-30T08:58:22;102527.50;;;8.28;77.99
55456;BME280;63021;52.836;6.376;2024-01-30T09:00:47;102537.50;;;8.39;78.38
55456;BME280;63021;52.836;6.376;2024-01-30T09:03:35;102507.41;;;8.24;78.31
55456;BME280;63021;52.836;6.376;2024-01-30T09:06:14;102528.19;;;8.32;78.22
55456;BME280;63021;52.836;6.376;2024-01-30T09:08:40;102521.97;;;8.47;78.07
55456;BME280;63021;52.836;6.376;2024-01-30T09:11:12;102521.03;;;8.48;78.38
55456;BME280;63021;52.836;6.376;2024-01-30T09:13:38;102549.31;;;8.64;78.30
55456;BME280;63021;52.836;6.376;2024-01-30T09:16:03;102546.28;;;8.70;78.31
55456;BME280;63021;52.836;6.376;2024-01-30T09:18:29;102546.00;;;8.75;78.47
55456;BME280;63021;52.836;6.376;2024-01-30T09:20:54;102508.06;;;8.58;78.46
55456;BME280;63021;52.836;6.376;2024-01-30T09:23:20;102548.03;;;8.86;78.60
55456;BME280;63021;52.836;6.376;2024-01-30T09:25:45;102520.44;;;8.74;78.64
55456;BME280;63021;52.836;6.376;2024-01-30T09:28:11;102516.25;;;8.84;78.39
55456;BME280;63021;52.836;6.376;2024-01-30T09:30:36;102567.47;;;9.00;78.13
55456;BME280;63021;52.836;6.376;2024-01-30T09:33:02;102509.50;;;8.93;78.38
55456;BME280;63021;52.836;6.376;2024-01-30T09:35:27;102559.69;;;9.12;78.30
55456;BME280;63021;52.836;6.376;2024-01-30T09:37:53;102538.06;;;9.18;78.45
55456;BME280;63021;52.836;6.376;2024-01-30T09:40:18;102547.44;;;9.24;78.16
55456;BME280;63021;52.836;6.376;2024-01-30T09:42:50;102523.91;;;9.17;78.41
55456;BME280;63021;52.836;6.376;2024-01-30T09:45:17;102540.63;;;9.34;78.10
55456;BME280;63021;52.836;6.376;2024-01-30T09:47:45;102536.72;;;9.40;78.13
55456;BME280;63021;52.836;6.376;2024-01-30T09:50:12;102528.28;;;9.33;77.94
55456;BME280;63021;52.836;6.376;2024-01-30T09:52:38;102547.78;;;9.46;78.16
55456;BME280;63021;52.836;6.376;2024-01-30T09:55:04;102536.78;;;9.52;78.38
55456;BME280;63021;52.836;6.376;2024-01-30T09:57:30;102527.41;;;9.47;77.82
55456;BME280;63021;52.836;6.376;2024-01-30T09:59:56;102508.31;;;9.40;77.90
55456;BME280;63021;52.836;6.376;2024-01-30T10:02:22;102503.00;;;9.40;77.95
55456;BME280;63021;52.836;6.376;2024-01-30T10:05:02;102547.47;;;9.65;77.89
55456;BME280;63021;52.836;6.376;2024-01-30T10:07:27;102542.91;;;9.67;78.07
55456;BME280;63021;52.836;6.376;2024-01-30T10:09:53;102532.56;;;9.63;78.07
55456;BME280;63021;52.836;6.376;2024-01-30T10:12:19;102508.50;;;9.51;77.87
55456;BME280;63021;52.836;6.376;2024-01-30T10:14:50;102536.69;;;9.81;77.72
55456;BME280;63021;52.836;6.376;2024-01-30T10:17:16;102515.28;;;9.70;78.23
55456;BME280;63021;52.836;6.376;2024-01-30T10:19:41;102528.53;;;9.84;77.78
55456;BME280;63021;52.836;6.376;2024-01-30T10:22:08;102534.09;;;9.94;77.37
55456;BME280;63021;52.836;6.376;2024-01-30T10:24:34;102536.34;;;10.00;77.75
55456;BME280;63021;52.836;6.376;2024-01-30T10:27:00;102530.69;;;10.05;77.46
55456;BME280;63021;52.836;6.376;2024-01-30T10:29:26;102546.56;;;10.06;77.52
55456;BME280;63021;52.836;6.376;2024-01-30T10:32:02;102541.69;;;10.13;77.62
55456;BME280;63021;52.836;6.376;2024-01-30T10:34:28;102542.53;;;10.14;77.61
55456;BME280;63021;52.836;6.376;2024-01-30T10:39:36;102553.63;;;10.20;77.46
55456;BME280;63021;52.836;6.376;2024-01-30T10:42:04;102549.06;;;10.22;77.35
55456;BME280;63021;52.836;6.376;2024-01-30T10:44:36;102557.81;;;10.25;77.50
55456;BME280;63021;52.836;6.376;2024-01-30T10:47:06;102564.91;;;10.24;77.34
55456;BME280;63021;52.836;6.376;2024-01-30T10:49:36;102567.47;;;10.26;77.45
55456;BME280;63021;52.836;6.376;2024-01-30T10:52:03;102557.59;;;10.28;77.53
55456;BME280;63021;52.836;6.376;2024-01-30T10:54:31;102559.22;;;10.30;77.29
55456;BME280;63021;52.836;6.376;2024-01-30T10:57:00;102541.53;;;10.29;77.54
55456;BME280;63021;52.836;6.376;2024-01-30T10:59:27;102556.34;;;10.33;77.18
55456;BME280;63021;52.836;6.376;2024-01-30T11:01:53;102549.22;;;10.34;77.78
55456;BME280;63021;52.836;6.376;2024-01-30T11:04:19;102565.19;;;10.34;77.24
55456;BME280;63021;52.836;6.376;2024-01-30T11:06:44;102557.97;;;10.36;77.64
55456;BME280;63021;52.836;6.376;2024-01-30T11:09:12;102560.53;;;10.37;77.63
55456;BME280;63021;52.836;6.376;2024-01-30T11:14:15;102570.31;;;10.37;77.50
55456;BME280;63021;52.836;6.376;2024-01-30T11:16:41;102526.50;;;10.28;77.58
55456;BME280;63021;52.836;6.376;2024-01-30T11:19:10;102546.06;;;10.42;77.70
55456;BME280;63021;52.836;6.376;2024-01-30T11:21:41;102564.38;;;10.46;77.66
55456;BME280;63021;52.836;6.376;2024-01-30T11:24:08;102553.72;;;10.46;77.65
55456;BME280;63021;52.836;6.376;2024-01-30T11:26:33;102539.44;;;10.47;77.85
55456;BME280;63021;52.836;6.376;2024-01-30T11:29:03;102541.16;;;10.48;78.19
55456;BME280;63021;52.836;6.376;2024-01-30T11:31:28;102531.38;;;10.49;77.83
55456;BME280;63021;52.836;6.376;2024-01-30T11:33:54;102531.88;;;10.54;77.59
55456;BME280;63021;52.836;6.376;2024-01-30T11:36:25;102541.38;;;10.58;77.63
55456;BME280;63021;52.836;6.376;2024-01-30T11:38:50;102541.38;;;10.58;77.92
55456;BME280;63021;52.836;6.376;2024-01-30T11:41:17;102548.84;;;10.66;77.37
55456;BME280;63021;52.836;6.376;2024-01-30T11:43:43;102518.16;;;10.60;77.85
55456;BME280;63021;52.836;6.376;2024-01-30T11:46:08;102536.91;;;10.71;77.43
55456;BME280;63021;52.836;6.376;2024-01-30T11:48:35;102533.72;;;10.66;77.61
55456;BME280;63021;52.836;6.376;2024-01-30T11:51:00;102539.28;;;10.76;77.13
55456;BME280;63021;52.836;6.376;2024-01-30T11:53:26;102562.25;;;10.77;76.93
55456;BME280;63021;52.836;6.376;2024-01-30T11:55:52;102566.75;;;10.77;77.09
55456;BME280;63021;52.836;6.376;2024-01-30T11:58:18;102568.66;;;10.74;77.04
55456;BME280;63021;52.836;6.376;2024-01-30T12:00:52;102570.91;;;10.68;77.05
55456;BME280;63021;52.836;6.376;2024-01-30T12:03:18;102562.25;;;10.64;76.79
55456;BME280;63021;52.836;6.376;2024-01-30T12:05:43;102570.56;;;10.60;76.55
55456;BME280;63021;52.836;6.376;2024-01-30T12:08:15;102592.50;;;10.50;76.40
55456;BME280;63021;52.836;6.376;2024-01-30T12:10:40;102571.69;;;10.43;76.42
55456;BME280;63021;52.836;6.376;2024-01-30T12:13:06;102567.84;;;10.34;75.86
55456;BME280;63021;52.836;6.376;2024-01-30T12:15:31;102571.19;;;10.37;76.01
55456;BME280;63021;52.836;6.376;2024-01-30T12:18:07;102576.84;;;10.31;75.60
55456;BME280;63021;52.836;6.376;2024-01-30T12:20:33;102558.53;;;10.27;75.44
55456;BME280;63021;52.836;6.376;2024-01-30T12:22:58;102546.72;;;10.18;74.97
55456;BME280;63021;52.836;6.376;2024-01-30T12:25:24;102566.31;;;10.30;75.11
55456;BME280;63021;52.836;6.376;2024-01-30T12:27:50;102568.25;;;10.28;74.67
55456;BME280;63021;52.836;6.376;2024-01-30T12:30:17;102575.56;;;10.24;74.75
55456;BME280;63021;52.836;6.376;2024-01-30T12:32:45;102568.56;;;10.23;74.08
55456;BME280;63021;52.836;6.376;2024-01-30T12:35:16;102576.19;;;10.15;74.21
55456;BME280;63021;52.836;6.376;2024-01-30T12:37:46;102579.16;;;10.10;73.94
55456;BME280;63021;52.836;6.376;2024-01-30T12:40:14;102579.16;;;10.10;74.06
55456;BME280;63021;52.836;6.376;2024-01-30T12:42:43;102583.50;;;10.11;73.85
55456;BME280;63021;52.836;6.376;2024-01-30T12:45:11;102588.00;;;10.11;74.35
55456;BME280;63021;52.836;6.376;2024-01-30T12:47:37;102581.63;;;10.13;73.98
55456;BME280;63021;52.836;6.376;2024-01-30T12:50:02;102573.94;;;10.09;73.54
55456;BME280;63021;52.836;6.376;2024-01-30T12:52:28;102568.72;;;10.07;73.46
55456;BME280;63021;52.836;6.376;2024-01-30T12:54:54;102574.44;;;10.01;73.58
55456;BME280;63021;52.836;6.376;2024-01-30T12:57:19;102584.34;;;9.99;73.44